createdAt,value
2018-02-10T00:02:05.721Z,95092.77
2018-02-10T00:04:33.259Z,95091.61
2018-02-10T00:07:00.792Z,95084.45
2018-02-10T00:09:28.347Z,95100.81
2018-02-10T00:11:55.871Z,95098.06
2018-02-10T00:14:23.402Z,95093.02
2018-02-10T00:16:50.976Z,95104.17
2018-02-10T00:19:18.509Z,95108.96
2018-02-10T00:21:46.059Z,95117.40
2018-02-10T00:24:13.606Z,95119.86
2018-02-10T00:26:41.131Z,95119.80
2018-02-10T00:29:08.896Z,95124.80
2018-02-10T00:31:36.443Z,95113.33
2018-02-10T00:34:04.116Z,95109.63
2018-02-10T00:36:33.851Z,95115.92
2018-02-10T00:39:01.430Z,95113.44
2018-02-10T00:41:29.264Z,95102.76
2018-02-10T00:43:56.779Z,95093.51
2018-02-10T00:46:24.356Z,95095.02
2018-02-10T00:48:51.890Z,95094.38
2018-02-10T00:51:19.401Z,95084.89
2018-02-10T00:53:47.280Z,95089.49
2018-02-10T00:56:14.809Z,95087.14
2018-02-10T00:58:42.597Z,95086.14
2018-02-10T01:01:10.161Z,95096.20
2018-02-10T01:03:37.699Z,95094.14
2018-02-10T01:06:05.262Z,95092.34
2018-02-10T01:08:32.800Z,95092.14
2018-02-10T01:11:00.318Z,95089.36
2018-02-10T01:13:27.854Z,95087.80
2018-02-10T01:15:55.583Z,95084.72
2018-02-10T01:18:23.105Z,95082.52
2018-02-10T01:20:50.617Z,95085.37
2018-02-10T01:23:18.180Z,95076.49
2018-02-10T01:25:45.706Z,95064.95
2018-02-10T01:28:13.240Z,95064.00
2018-02-10T01:30:40.789Z,95060.72
2018-02-10T01:33:08.315Z,95063.02
2018-02-10T01:35:35.817Z,95056.91
2018-02-10T01:38:03.471Z,95071.00
2018-02-10T01:40:31.309Z,95066.00
2018-02-10T01:42:58.843Z,95053.64
2018-02-10T01:45:26.399Z,95066.24
2018-02-10T01:47:53.927Z,95061.05
2018-02-10T01:50:22.196Z,95066.45
2018-02-10T01:52:49.739Z,95067.80
2018-02-10T01:55:17.252Z,95063.99
2018-02-10T01:57:44.819Z,95082.70
2018-02-10T02:00:12.413Z,95055.35
2018-02-10T02:02:39.935Z,95043.94
2018-02-10T02:05:07.477Z,95047.08
2018-02-10T02:07:35.013Z,95050.56
2018-02-10T02:10:02.530Z,95054.00
2018-02-10T02:12:30.065Z,95057.49
2018-02-10T02:14:57.605Z,95056.35
2018-02-10T02:17:25.126Z,95056.20
2018-02-10T02:19:52.634Z,95056.91
2018-02-10T02:22:20.199Z,95060.19
2018-02-10T02:24:47.733Z,95054.00
2018-02-10T02:27:15.268Z,95051.86
2018-02-10T02:29:43.116Z,95048.61
2018-02-10T02:32:10.653Z,95054.95
2018-02-10T02:34:38.191Z,95053.95
2018-02-10T02:37:05.705Z,95052.20
2018-02-10T02:39:33.292Z,95054.27
2018-02-10T02:42:00.819Z,95051.92
2018-02-10T02:44:28.687Z,95052.71
2018-02-10T02:46:56.221Z,95048.27
2018-02-10T02:49:23.752Z,95052.47
2018-02-10T02:51:51.274Z,95060.16
2018-02-10T02:54:18.813Z,95054.17
2018-02-10T02:56:46.337Z,95045.45
2018-02-10T02:59:14.135Z,95057.81
2018-02-10T03:01:41.724Z,95050.28
2018-02-10T03:04:09.253Z,95045.79
2018-02-10T03:06:36.797Z,95044.89
2018-02-10T03:09:04.341Z,95037.52
2018-02-10T03:11:31.866Z,95038.50
2018-02-10T03:13:59.419Z,95038.81
2018-02-10T03:16:26.984Z,95030.45
2018-02-10T03:18:54.510Z,95041.45
2018-02-10T03:21:22.034Z,95042.17
2018-02-10T03:23:49.580Z,95048.55
2018-02-10T03:26:17.099Z,95047.11
2018-02-10T03:28:44.635Z,95044.42
2018-02-10T03:31:12.173Z,95044.20
2018-02-10T03:33:39.987Z,95039.53
2018-02-10T03:36:07.548Z,95045.47
2018-02-10T03:38:35.073Z,95044.92
2018-02-10T03:41:02.619Z,95048.02
2018-02-10T03:43:30.486Z,95036.97
2018-02-10T03:45:58.230Z,95042.78
2018-02-10T03:48:25.757Z,95041.44
2018-02-10T03:50:53.639Z,95035.67
2018-02-10T03:53:21.169Z,95028.36
2018-02-10T03:55:49.106Z,95031.05
2018-02-10T03:58:16.632Z,95033.53
2018-02-10T04:00:44.191Z,95032.34
2018-02-10T04:03:11.719Z,95027.51
2018-02-10T04:05:39.242Z,95020.01
2018-02-10T04:08:07.041Z,95017.87
2018-02-10T04:10:34.621Z,95011.81
2018-02-10T04:13:02.150Z,95010.07
2018-02-10T04:15:29.717Z,95014.30
2018-02-10T04:17:57.251Z,95007.72
2018-02-10T04:20:24.816Z,95000.83
2018-02-10T04:22:52.355Z,95006.61
2018-02-10T04:25:19.884Z,95010.86
2018-02-10T04:27:47.422Z,94997.66
2018-02-10T04:30:14.970Z,94992.27
2018-02-10T04:32:42.493Z,95002.50
2018-02-10T04:35:10.014Z,95004.61
2018-02-10T04:37:37.726Z,95008.09
2018-02-10T04:40:05.241Z,95014.83
2018-02-10T04:42:33.074Z,95004.53
2018-02-10T04:45:00.589Z,94995.97
2018-02-10T04:47:28.409Z,94989.39
2018-02-10T04:49:56.339Z,94993.06
2018-02-10T04:52:23.860Z,94994.41
2018-02-10T04:54:51.406Z,94995.76
2018-02-10T04:57:18.951Z,94992.08
2018-02-10T04:59:46.487Z,94991.13
2018-02-10T05:02:14.027Z,94991.13
2018-02-10T05:04:41.549Z,94994.41
2018-02-10T05:07:09.073Z,94996.44
2018-02-10T05:09:36.599Z,94999.29
2018-02-10T05:12:04.135Z,94961.78
2018-02-10T05:14:31.687Z,94991.55
2018-02-10T05:16:59.223Z,94994.80
2018-02-10T05:19:26.769Z,95005.98
2018-02-10T05:21:54.292Z,95001.54
2018-02-10T05:24:21.807Z,95005.77
2018-02-10T05:26:49.349Z,94993.64
2018-02-10T05:29:16.878Z,95009.41
2018-02-10T05:31:44.399Z,94994.59
2018-02-10T05:34:11.929Z,95010.77
2018-02-10T05:36:39.464Z,95008.28
2018-02-10T05:39:06.984Z,95005.03
2018-02-10T05:41:34.511Z,95011.20
2018-02-10T05:44:02.052Z,95012.72
2018-02-10T05:46:29.581Z,95012.00
2018-02-10T05:48:57.149Z,95005.48
2018-02-10T05:51:24.673Z,95002.38
2018-02-10T05:53:52.185Z,95003.70
2018-02-10T05:56:19.704Z,95003.78
2018-02-10T05:58:47.221Z,95009.06
2018-02-10T06:01:14.771Z,94999.52
2018-02-10T06:03:42.299Z,95000.52
2018-02-10T06:06:09.839Z,94994.23
2018-02-10T06:08:37.397Z,95000.47
2018-02-10T06:11:04.927Z,95004.00
2018-02-10T06:13:32.501Z,95012.94
2018-02-10T06:16:00.031Z,95009.84
2018-02-10T06:18:27.556Z,95028.79
2018-02-10T06:20:55.124Z,95019.36
2018-02-10T06:23:22.639Z,95026.48
2018-02-10T06:25:50.193Z,95020.52
2018-02-10T06:28:17.737Z,95012.03
2018-02-10T06:30:45.295Z,95017.55
2018-02-10T06:33:12.819Z,95008.80
2018-02-10T06:35:40.343Z,95009.18
2018-02-10T06:38:07.894Z,95018.00
2018-02-10T06:40:35.406Z,95004.89
2018-02-10T06:43:02.963Z,95000.56
2018-02-10T06:45:30.494Z,94999.11
2018-02-10T06:47:58.036Z,94994.77
2018-02-10T06:50:25.553Z,94987.59
2018-02-10T06:52:53.147Z,94989.64
2018-02-10T06:55:20.665Z,94992.94
2018-02-10T06:57:48.201Z,94982.97
2018-02-10T07:00:15.762Z,94986.83
2018-02-10T07:02:43.283Z,94980.50
2018-02-10T07:05:10.810Z,94978.72
2018-02-10T07:07:38.351Z,94982.56
2018-02-10T07:10:05.884Z,94970.81
2018-02-10T07:12:33.439Z,94968.30
2018-02-10T07:15:00.953Z,94973.84
2018-02-10T07:17:28.474Z,94971.59
2018-02-10T07:19:56.041Z,94973.23
2018-02-10T07:22:23.566Z,94980.88
2018-02-10T07:24:51.095Z,94975.20
2018-02-10T07:27:18.615Z,94965.98
2018-02-10T07:29:46.207Z,94969.67
2018-02-10T07:32:13.763Z,94931.87
2018-02-10T07:34:41.715Z,94964.84
2018-02-10T07:37:09.546Z,94951.70
2018-02-10T07:39:37.075Z,94946.34
2018-02-10T07:42:04.604Z,94943.17
2018-02-10T07:44:32.488Z,94941.98
2018-02-10T07:47:00.042Z,94947.74
2018-02-10T07:49:27.596Z,94943.55
2018-02-10T07:51:55.136Z,94941.16
2018-02-10T07:54:22.678Z,94930.69
2018-02-10T07:56:53.840Z,94918.50
2018-02-10T07:59:21.498Z,94912.89
2018-02-10T08:01:49.995Z,94932.97
2018-02-10T08:04:17.503Z,94924.98
2018-02-10T08:06:52.361Z,94920.34
2018-02-10T08:09:21.431Z,94913.23
2018-02-10T08:11:48.952Z,94925.53
2018-02-10T08:14:16.481Z,94918.23
2018-02-10T08:16:44.010Z,94921.72
2018-02-10T08:19:11.538Z,94907.72
2018-02-10T08:21:39.050Z,94918.86
2018-02-10T08:24:06.586Z,94920.29
2018-02-10T08:26:34.137Z,94913.50
2018-02-10T08:29:01.649Z,94911.72
2018-02-10T08:31:29.258Z,94910.25
2018-02-10T08:33:56.769Z,94902.00
2018-02-10T08:36:24.299Z,94898.79
2018-02-10T08:38:51.901Z,94896.65
2018-02-10T08:41:19.423Z,94888.31
2018-02-10T08:43:47.001Z,94886.31
2018-02-10T08:46:14.530Z,94890.52
2018-02-10T08:48:43.180Z,94890.10
2018-02-10T08:51:10.756Z,94896.27
2018-02-10T08:53:38.296Z,94900.77
2018-02-10T08:56:05.964Z,94894.95
2018-02-10T08:58:33.497Z,94889.98
2018-02-10T09:01:01.054Z,94853.95
2018-02-10T09:03:28.592Z,94894.64
2018-02-10T09:05:56.133Z,94889.61
2018-02-10T09:08:23.669Z,94878.41
2018-02-10T09:10:51.472Z,94867.70
2018-02-10T09:13:19.070Z,94872.12
2018-02-10T09:15:46.700Z,94867.37
2018-02-10T09:18:14.231Z,94851.14
2018-02-10T09:20:42.091Z,94865.59
2018-02-10T09:23:09.875Z,94863.63
2018-02-10T09:25:37.431Z,94861.63
2018-02-10T09:28:04.983Z,94858.41
2018-02-10T09:30:32.553Z,94857.91
2018-02-10T09:33:00.085Z,94856.61
2018-02-10T09:35:27.920Z,94846.59
2018-02-10T09:37:55.470Z,94844.38
2018-02-10T09:40:23.091Z,94839.28
2018-02-10T09:42:50.647Z,94832.88
2018-02-10T09:45:18.171Z,94827.70
2018-02-10T09:47:45.685Z,94826.85
2018-02-10T09:50:13.225Z,94825.23
2018-02-10T09:52:40.737Z,94812.95
2018-02-10T09:55:08.259Z,94819.96
2018-02-10T09:57:35.774Z,94821.52
2018-02-10T10:00:06.801Z,94810.71
2018-02-10T10:02:34.321Z,94813.28
2018-02-10T10:05:01.869Z,94780.84
2018-02-10T10:07:29.397Z,94794.47
2018-02-10T10:09:56.909Z,94793.37
2018-02-10T10:12:24.435Z,94789.82
2018-02-10T10:14:51.969Z,94779.70
2018-02-10T10:17:19.535Z,94776.64
2018-02-10T10:19:47.089Z,94773.37
2018-02-10T10:22:14.854Z,94776.64
2018-02-10T10:24:42.401Z,94771.83
2018-02-10T10:27:10.287Z,94758.72
2018-02-10T10:29:37.816Z,94762.83
2018-02-10T10:32:05.397Z,94760.35
2018-02-10T10:34:32.933Z,94759.31
2018-02-10T10:37:00.459Z,94765.63
2018-02-10T10:39:27.973Z,94755.25
2018-02-10T10:41:55.494Z,94750.89
2018-02-10T10:44:23.038Z,94759.40
2018-02-10T10:46:50.550Z,94745.08
2018-02-10T10:49:18.070Z,94749.89
2018-02-10T10:51:45.609Z,94753.88
2018-02-10T10:54:13.145Z,94744.66
2018-02-10T10:56:40.844Z,94746.88
2018-02-10T10:59:08.363Z,94737.66
2018-02-10T11:01:35.982Z,94729.83
2018-02-10T11:04:03.530Z,94726.23
2018-02-10T11:06:31.054Z,94718.09
2018-02-10T11:08:58.629Z,94715.31
2018-02-10T11:11:26.149Z,94715.82
2018-02-10T11:13:53.709Z,94713.42
2018-02-10T11:16:52.483Z,94704.45
2018-02-10T11:19:20.474Z,94701.13
2018-02-10T11:21:48.841Z,94698.14
2018-02-10T11:26:57.627Z,94690.53
2018-02-10T11:29:27.006Z,94691.80
2018-02-10T11:31:54.546Z,94675.19
2018-02-10T11:34:22.086Z,94683.41
2018-02-10T11:36:49.706Z,94675.67
2018-02-10T11:39:17.236Z,94684.27
2018-02-10T11:41:44.795Z,94676.75
2018-02-10T11:44:12.426Z,94677.45
2018-02-10T11:46:39.957Z,94681.34
2018-02-10T11:49:07.488Z,94687.48
2018-02-10T11:51:35.079Z,94678.86
2018-02-10T11:54:02.640Z,94677.06
2018-02-10T11:56:30.254Z,94681.17
2018-02-10T11:58:57.883Z,94672.98
2018-02-10T12:01:25.441Z,94679.37
2018-02-10T12:03:52.982Z,94678.02
2018-02-10T12:06:21.915Z,94678.97
2018-02-10T12:08:49.494Z,94669.23
2018-02-10T12:11:17.014Z,94669.23
2018-02-10T12:13:44.609Z,94662.89
2018-02-10T12:16:12.119Z,94669.75
2018-02-10T12:18:39.686Z,94661.92
2018-02-10T12:21:09.879Z,94655.14
2018-02-10T12:23:37.396Z,94653.00
2018-02-10T12:26:05.269Z,94645.85
2018-02-10T12:28:33.137Z,94642.75
2018-02-10T12:31:00.711Z,94645.28
2018-02-10T12:33:28.267Z,94646.59
2018-02-10T12:35:55.796Z,94633.13
2018-02-10T12:38:23.330Z,94633.91
2018-02-10T12:40:51.056Z,94620.69
2018-02-10T12:43:18.734Z,94623.11
2018-02-10T12:45:46.274Z,94624.82
2018-02-10T12:48:19.433Z,94618.54
2018-02-10T12:50:46.945Z,94620.25
2018-02-10T12:53:14.484Z,94616.55
2018-02-10T12:55:42.005Z,94615.91
2018-02-10T12:58:09.551Z,94619.44
2018-02-10T13:00:37.116Z,94613.64
2018-02-10T13:03:04.667Z,94612.89
2018-02-10T13:05:32.194Z,94612.40
2018-02-10T13:07:59.717Z,94610.59
2018-02-10T13:10:27.253Z,94608.62
2018-02-10T13:12:54.792Z,94606.64
2018-02-10T13:15:22.319Z,94602.90
2018-02-10T13:17:49.864Z,94605.90
2018-02-10T13:20:17.414Z,94601.92
2018-02-10T13:22:44.952Z,94599.59
2018-02-10T13:25:12.497Z,94595.96
2018-02-10T13:27:40.641Z,94588.56
2018-02-10T13:30:08.297Z,94594.19
2018-02-10T13:32:36.135Z,94595.59
2018-02-10T13:35:03.700Z,94586.14
2018-02-10T13:37:31.213Z,94584.03
2018-02-10T13:39:59.200Z,94582.64
2018-02-10T13:42:26.992Z,94583.43
2018-02-10T13:44:54.519Z,94581.32
2018-02-10T13:47:22.047Z,94580.08
2018-02-10T13:49:49.585Z,94578.61
2018-02-10T13:52:17.451Z,94579.68
2018-02-10T13:54:45.004Z,94573.77
2018-02-10T13:57:12.517Z,94572.59
2018-02-10T13:59:40.045Z,94566.03
2018-02-10T14:02:07.693Z,94569.92
2018-02-10T14:04:36.087Z,94588.34
2018-02-10T14:07:03.631Z,94563.38
2018-02-10T14:09:31.176Z,94563.24
2018-02-10T14:11:58.704Z,94566.70
2018-02-10T14:14:26.781Z,94564.36
2018-02-10T14:16:54.311Z,94565.55
2018-02-10T14:19:21.852Z,94565.25
2018-02-10T14:21:49.869Z,94566.30
2018-02-10T14:24:17.397Z,94562.72
2018-02-10T14:26:45.786Z,94553.67
2018-02-10T14:29:13.597Z,94553.59
2018-02-10T14:31:41.138Z,94561.67
2018-02-10T14:34:08.727Z,94559.02
2018-02-10T14:36:37.645Z,94557.13
2018-02-10T14:39:05.204Z,94553.94
2018-02-10T14:41:32.783Z,94564.16
2018-02-10T14:44:00.320Z,94560.74
2018-02-10T14:46:27.882Z,94569.28
2018-02-10T14:48:55.409Z,94560.41
2018-02-10T14:51:22.942Z,94571.14
2018-02-10T14:53:51.282Z,94563.38
2018-02-10T14:56:18.876Z,94573.38
2018-02-10T14:58:46.424Z,94559.74
2018-02-10T15:01:13.962Z,94571.22
2018-02-10T15:03:42.528Z,94599.27
2018-02-10T15:06:10.063Z,94569.46
2018-02-10T15:08:37.640Z,94498.27
2018-02-10T15:11:06.105Z,94575.59
2018-02-10T15:13:33.684Z,94572.53
2018-02-10T15:16:02.022Z,94578.01
2018-02-10T15:18:29.581Z,94583.90
2018-02-10T15:20:57.381Z,94569.86
2018-02-10T15:23:24.924Z,94561.75
2018-02-10T15:25:52.466Z,94557.69
2018-02-10T15:28:20.023Z,94555.62
2018-02-10T15:30:59.659Z,94557.47
2018-02-10T15:33:39.140Z,94544.64
2018-02-10T15:36:07.031Z,94543.92
2018-02-10T15:38:34.717Z,94540.86
2018-02-10T15:41:02.696Z,94520.55
2018-02-10T15:43:30.434Z,94534.70
2018-02-10T15:45:57.978Z,94532.69
2018-02-10T15:48:25.598Z,94528.21
2018-02-10T15:50:53.144Z,94537.23
2018-02-10T15:53:20.734Z,94525.13
2018-02-10T15:55:48.262Z,94530.41
2018-02-10T15:58:16.197Z,94523.34
2018-02-10T16:00:43.823Z,94520.31
2018-02-10T16:03:12.029Z,94519.82
2018-02-10T16:05:39.577Z,94522.13
2018-02-10T16:08:07.565Z,94521.41
2018-02-10T16:10:35.878Z,94527.24
2018-02-10T16:13:03.468Z,94523.47
2018-02-10T16:15:31.017Z,94522.76
2018-02-10T16:17:59.143Z,94502.47
2018-02-10T16:20:27.182Z,94521.76
2018-02-10T16:22:54.710Z,94514.46
2018-02-10T16:25:22.674Z,94520.02
2018-02-10T16:27:50.211Z,94522.38
2018-02-10T16:30:18.148Z,94511.73
2018-02-10T16:32:45.702Z,94507.52
2018-02-10T16:35:13.255Z,94502.23
2018-02-10T16:37:40.807Z,94496.91
2018-02-10T16:40:09.002Z,94458.52
2018-02-10T16:42:37.486Z,94504.39
2018-02-10T16:45:05.014Z,94508.36
2018-02-10T16:47:32.549Z,94501.94
2018-02-10T16:50:00.912Z,94511.89
2018-02-10T16:52:28.749Z,94511.56
2018-02-10T16:54:56.606Z,94506.76
2018-02-10T16:57:24.164Z,94504.55
2018-02-10T16:59:51.721Z,94507.58
2018-02-10T17:02:19.420Z,94497.17
2018-02-10T17:04:46.959Z,94492.71
2018-02-10T17:07:14.493Z,94485.44
2018-02-10T17:09:42.429Z,94481.41
2018-02-10T17:12:09.975Z,94485.52
2018-02-10T17:14:37.542Z,94492.30
2018-02-10T17:17:05.211Z,94481.95
2018-02-10T17:19:33.097Z,94474.84
2018-02-10T17:22:00.880Z,94466.39
2018-02-10T17:24:28.406Z,94476.08
2018-02-10T17:26:55.965Z,94468.92
2018-02-10T17:29:23.556Z,94446.94
2018-02-10T17:31:51.117Z,94462.81
2018-02-10T17:34:18.654Z,94456.98
2018-02-10T17:36:46.445Z,94452.85
2018-02-10T17:39:14.311Z,94459.36
2018-02-10T17:41:42.729Z,94464.70
2018-02-10T17:44:10.580Z,94461.13
2018-02-10T17:46:38.754Z,94455.81
2018-02-10T17:49:06.289Z,94449.80
2018-02-10T17:51:34.041Z,94452.92
2018-02-10T17:54:01.566Z,94451.73
2018-02-10T17:56:30.063Z,94457.10
2018-02-10T17:58:57.640Z,94442.73
2018-02-10T18:01:25.255Z,94450.78
2018-02-10T18:03:53.197Z,94438.34
2018-02-10T18:06:20.731Z,94454.19
2018-02-10T18:08:48.508Z,94450.39
2018-02-10T18:11:16.928Z,94456.95
2018-02-10T18:13:44.777Z,94452.18
2018-02-10T18:16:12.436Z,94462.23
2018-02-10T18:18:40.018Z,94464.70
2018-02-10T18:21:07.538Z,94466.92
2018-02-10T18:23:35.089Z,94460.50
2018-02-10T18:26:05.252Z,94457.14
2018-02-10T18:28:33.285Z,94457.03
2018-02-10T18:31:00.910Z,94451.22
2018-02-10T18:33:29.674Z,94456.53
2018-02-10T18:35:58.986Z,94456.59
2018-02-10T18:38:26.573Z,94448.58
2018-02-10T18:41:07.588Z,94457.42
2018-02-10T18:43:35.279Z,94452.11
2018-02-10T18:46:03.186Z,94440.80
2018-02-10T18:48:30.809Z,94454.95
2018-02-10T18:50:58.644Z,94412.33
2018-02-10T18:53:38.776Z,94474.55
2018-02-10T18:59:06.332Z,94460.03
2018-02-10T19:01:42.495Z,94461.01
2018-02-10T19:04:10.174Z,94454.98
2018-02-10T19:06:37.816Z,94452.51
2018-02-10T19:09:05.642Z,94455.64
2018-02-10T19:11:33.182Z,94457.53
2018-02-10T19:14:01.591Z,94460.41
2018-02-10T19:16:29.736Z,94457.73
2018-02-10T19:18:58.132Z,94449.64
2018-02-10T19:21:25.753Z,94442.39
2018-02-10T19:23:53.587Z,94442.67
2018-02-10T19:26:21.134Z,94446.06
2018-02-10T19:28:48.926Z,94445.06
2018-02-10T19:31:16.561Z,94451.72
2018-02-10T19:33:44.132Z,94444.78
2018-02-10T19:36:11.930Z,94449.19
2018-02-10T19:38:39.545Z,94448.20
2018-02-10T19:41:07.876Z,94427.59
2018-02-10T19:43:35.693Z,94452.03
2018-02-10T19:46:03.685Z,94446.66
2018-02-10T19:48:31.983Z,94451.58
2018-02-10T19:51:00.590Z,94443.39
2018-02-10T19:53:28.197Z,94446.28
2018-02-10T19:55:57.172Z,94445.83
2018-02-10T19:58:24.936Z,94441.02
2018-02-10T20:00:52.558Z,94451.35
2018-02-10T20:03:21.121Z,94443.05
2018-02-10T20:05:48.678Z,94433.43
2018-02-10T20:08:16.229Z,94440.61
2018-02-10T20:10:43.784Z,94436.41
2018-02-10T20:13:11.687Z,94437.44
2018-02-10T20:15:40.169Z,94429.41
2018-02-10T20:18:10.686Z,94429.41
2018-02-10T20:20:38.868Z,94429.36
2018-02-10T20:23:06.458Z,94417.30
2018-02-10T20:25:35.098Z,94419.19
2018-02-10T20:30:41.930Z,94405.04
2018-02-10T20:33:29.488Z,94393.97
2018-02-10T20:35:59.711Z,94411.14
2018-02-10T20:38:30.324Z,94406.87
2018-02-10T20:40:57.849Z,94408.77
2018-02-10T20:43:32.632Z,94401.62
2018-02-10T20:46:13.571Z,94408.16
2018-02-10T20:51:44.631Z,94395.36
2018-02-10T20:54:12.477Z,94404.03
2018-02-10T20:56:40.385Z,94402.02
2018-02-10T20:59:08.998Z,94398.78
2018-02-10T21:01:37.504Z,94394.41
2018-02-10T21:04:05.097Z,94394.41
2018-02-10T21:06:32.969Z,94395.75
2018-02-10T21:09:00.485Z,94391.16
2018-02-10T21:11:28.082Z,94390.06
2018-02-10T21:13:56.540Z,94388.92
2018-02-10T21:16:24.301Z,94383.23
2018-02-10T21:18:53.410Z,94364.94
2018-02-10T21:21:20.968Z,94381.20
2018-02-10T21:23:48.529Z,94381.67
2018-02-10T21:26:16.276Z,94370.58
2018-02-10T21:28:43.809Z,94382.95
2018-02-10T21:31:11.353Z,94377.07
2018-02-10T21:33:38.893Z,94371.53
2018-02-10T21:36:06.647Z,94378.85
2018-02-10T21:38:34.284Z,94376.56
2018-02-10T21:41:02.000Z,94373.92
2018-02-10T21:43:29.597Z,94376.45
2018-02-10T21:45:57.534Z,94346.41
2018-02-10T21:48:27.229Z,94374.36
2018-02-10T21:50:54.774Z,94366.55
2018-02-10T21:53:24.557Z,94370.02
2018-02-10T21:55:54.010Z,94375.78
2018-02-10T21:58:21.950Z,94368.33
2018-02-10T22:00:49.787Z,94370.11
2018-02-10T22:03:18.958Z,94355.89
2018-02-10T22:05:46.514Z,94359.36
2018-02-10T22:08:14.318Z,94366.87
2018-02-10T22:10:41.859Z,94353.28
2018-02-10T22:13:09.519Z,94350.98
2018-02-10T22:15:37.055Z,94352.38
2018-02-10T22:18:04.619Z,94345.27
2018-02-10T22:20:32.151Z,94351.23
2018-02-10T22:22:59.717Z,94347.44
2018-02-10T22:25:27.272Z,94347.28
2018-02-10T22:27:54.821Z,94344.99
2018-02-10T22:30:22.418Z,94346.33
2018-02-10T22:32:50.314Z,94337.88
2018-02-10T22:35:18.070Z,94336.35
2018-02-10T22:37:45.927Z,94336.74
2018-02-10T22:40:13.467Z,94336.35
2018-02-10T22:42:59.525Z,94326.62
2018-02-10T22:45:27.068Z,94322.80
2018-02-10T22:47:54.618Z,94325.09
2018-02-10T22:50:52.285Z,94319.72
2018-02-10T22:53:20.162Z,94322.80
2018-02-10T22:55:47.728Z,94314.42
2018-02-10T22:58:15.292Z,94309.52
2018-02-10T23:00:43.056Z,94307.43
2018-02-10T23:03:16.741Z,94309.56
2018-02-10T23:05:44.480Z,94302.89
2018-02-10T23:08:12.005Z,94300.76
2018-02-10T23:10:45.452Z,94299.48
2018-02-10T23:13:13.062Z,94303.91
2018-02-10T23:15:40.603Z,94296.61
2018-02-10T23:18:08.528Z,94316.32
2018-02-10T23:20:36.214Z,94297.00
2018-02-10T23:23:03.850Z,94290.88
2018-02-10T23:25:31.653Z,94284.16
2018-02-10T23:27:59.208Z,94288.39
2018-02-10T23:30:26.785Z,94272.59
2018-02-10T23:32:54.326Z,94286.48
2018-02-10T23:35:39.561Z,94279.38
2018-02-10T23:38:07.116Z,94287.59
2018-02-10T23:40:34.912Z,94289.89
2018-02-10T23:43:02.463Z,94282.97
2018-02-10T23:45:30.012Z,94280.45
2018-02-10T23:47:57.592Z,94273.73
2018-02-10T23:50:25.134Z,94270.62
2018-02-10T23:52:53.058Z,94272.74
2018-02-10T23:55:20.687Z,94279.27
2018-02-10T23:57:48.556Z,94281.40
